createdAt,value
2018-07-09T00:00:03.131Z,89.6
2018-07-09T00:01:04.088Z,89.8
2018-07-09T00:02:04.823Z,90.1
2018-07-09T00:03:05.558Z,90.1
2018-07-09T00:04:06.266Z,90.0
2018-07-09T00:05:06.993Z,90.3
2018-07-09T00:06:07.710Z,90.3
2018-07-09T00:07:08.427Z,90.3
2018-07-09T00:08:09.390Z,90.2
2018-07-09T00:09:10.118Z,90.3
2018-07-09T00:10:10.840Z,90.3
2018-07-09T00:11:11.558Z,90.4
2018-07-09T00:12:12.680Z,90.4
2018-07-09T00:13:13.398Z,90.4
2018-07-09T00:14:14.125Z,90.9
2018-07-09T00:15:14.838Z,90.7
2018-07-09T00:16:15.575Z,90.5
2018-07-09T00:17:16.295Z,90.7
2018-07-09T00:18:17.013Z,90.8
2018-07-09T00:19:17.987Z,90.8
2018-07-09T00:20:19.106Z,90.4
2018-07-09T00:21:19.820Z,90.9
2018-07-09T00:22:20.788Z,91.0
2018-07-09T00:23:21.756Z,90.8
2018-07-09T00:24:22.469Z,90.6
2018-07-09T00:25:23.190Z,91.2
2018-07-09T00:26:23.919Z,91.2
2018-07-09T00:27:24.641Z,91.4
2018-07-09T00:28:25.368Z,91.4
2018-07-09T00:29:26.095Z,91.3
2018-07-09T00:30:26.819Z,91.4
2018-07-09T00:31:27.554Z,91.7
2018-07-09T00:32:28.269Z,91.6
2018-07-09T00:33:29.001Z,91.7
2018-07-09T00:34:29.717Z,91.9
2018-07-09T00:35:30.691Z,91.4
2018-07-09T00:36:31.660Z,91.7
2018-07-09T00:37:32.381Z,92.4
2018-07-09T00:38:33.344Z,92.6
2018-07-09T00:39:34.306Z,92.5
2018-07-09T00:40:35.268Z,92.1
2018-07-09T00:41:35.979Z,92.2
2018-07-09T00:42:36.693Z,92.3
2018-07-09T00:43:37.405Z,91.9
2018-07-09T00:44:38.125Z,91.9
2018-07-09T00:45:38.849Z,92.0
2018-07-09T00:46:39.574Z,92.8
2018-07-09T00:47:40.291Z,92.2
2018-07-09T00:48:41.021Z,92.4
2018-07-09T00:49:42.135Z,92.4
2018-07-09T00:50:42.848Z,92.4
2018-07-09T00:51:43.568Z,92.6
2018-07-09T00:52:44.289Z,92.4
2018-07-09T00:53:45.012Z,93.0
2018-07-09T00:54:45.901Z,92.7
2018-07-09T00:55:46.619Z,92.7
2018-07-09T00:56:47.342Z,92.8
2018-07-09T00:57:48.311Z,93.4
2018-07-09T00:58:49.026Z,92.9
2018-07-09T00:59:49.747Z,92.7
2018-07-09T01:00:50.473Z,92.5
2018-07-09T01:01:51.208Z,92.8
2018-07-09T01:02:51.935Z,92.8
2018-07-09T01:03:52.664Z,92.9
2018-07-09T01:04:53.392Z,92.5
2018-07-09T01:05:54.275Z,93.0
2018-07-09T01:06:54.984Z,92.9
2018-07-09T01:07:55.696Z,92.9
2018-07-09T01:08:56.420Z,93.1
2018-07-09T01:09:57.132Z,93.1
2018-07-09T01:10:57.919Z,93.3
2018-07-09T01:11:58.650Z,93.4
2018-07-09T01:12:59.365Z,93.5
2018-07-09T01:14:00.084Z,93.6
2018-07-09T01:15:01.058Z,93.6
2018-07-09T01:16:01.784Z,93.6
2018-07-09T01:17:02.751Z,93.5
2018-07-09T01:18:03.464Z,93.6
2018-07-09T01:19:04.185Z,93.3
2018-07-09T01:20:04.910Z,93.5
2018-07-09T01:21:05.630Z,93.5
2018-07-09T01:22:06.406Z,93.9
2018-07-09T01:23:07.123Z,93.6
2018-07-09T01:24:07.846Z,93.9
2018-07-09T01:25:08.567Z,94.2
2018-07-09T01:26:09.283Z,94.3
2018-07-09T01:27:10.098Z,94.6
2018-07-09T01:28:10.822Z,94.4
2018-07-09T01:29:11.545Z,94.3
2018-07-09T01:30:12.266Z,94.3
2018-07-09T01:31:12.997Z,94.2
2018-07-09T01:32:13.701Z,94.1
2018-07-09T01:33:14.677Z,94.0
2018-07-09T01:34:15.394Z,94.2
2018-07-09T01:35:16.109Z,94.3
2018-07-09T01:36:16.823Z,94.1
2018-07-09T01:37:17.599Z,94.2
2018-07-09T01:38:18.312Z,94.4
2018-07-09T01:39:19.037Z,94.6
2018-07-09T01:40:19.785Z,94.7
2018-07-09T01:41:20.512Z,95.1
2018-07-09T01:42:21.228Z,95.0
2018-07-09T01:43:22.597Z,95.0
2018-07-09T01:44:23.319Z,94.9
2018-07-09T01:45:24.287Z,95.4
2018-07-09T01:46:25.015Z,95.7
2018-07-09T01:47:25.730Z,95.9
2018-07-09T01:48:26.507Z,95.9
2018-07-09T01:49:27.239Z,96.1
2018-07-09T01:50:27.955Z,95.6
2018-07-09T01:51:28.683Z,96.7
2018-07-09T01:52:29.403Z,96.6
2018-07-09T01:53:30.775Z,96.7
2018-07-09T01:54:31.482Z,96.4
2018-07-09T01:55:32.189Z,96.8
2018-07-09T01:56:32.913Z,96.7
2018-07-09T01:57:33.627Z,96.7
2018-07-09T01:58:34.344Z,96.7
2018-07-09T01:59:35.319Z,96.7
2018-07-09T02:00:36.034Z,96.7
2018-07-09T02:01:36.764Z,96.7
2018-07-09T02:02:37.485Z,96.6
2018-07-09T02:03:38.197Z,97.0
2018-07-09T02:04:38.931Z,96.9
2018-07-09T02:05:39.643Z,97.1
2018-07-09T02:06:40.358Z,97.5
2018-07-09T02:07:41.102Z,97.5
2018-07-09T02:08:41.809Z,97.8
2018-07-09T02:09:42.539Z,97.5
2018-07-09T02:10:43.255Z,97.5
2018-07-09T02:11:43.971Z,97.6
2018-07-09T02:12:44.727Z,97.5
2018-07-09T02:13:45.447Z,97.8
2018-07-09T02:14:46.174Z,97.7
2018-07-09T02:15:46.896Z,97.8
2018-07-09T02:16:47.935Z,97.9
2018-07-09T02:17:48.661Z,97.7
2018-07-09T02:18:49.379Z,97.8
2018-07-09T02:19:50.089Z,97.8
2018-07-09T02:20:50.811Z,98.3
2018-07-09T02:21:51.531Z,98.8
2018-07-09T02:22:52.250Z,98.9
2018-07-09T02:23:52.979Z,98.9
2018-07-09T02:24:53.687Z,98.8
2018-07-09T02:25:54.401Z,98.8
2018-07-09T02:26:55.229Z,98.8
2018-07-09T02:27:55.939Z,98.4
2018-07-09T02:28:56.674Z,98.6
2018-07-09T02:29:57.386Z,98.7
2018-07-09T02:30:58.111Z,98.9
2018-07-09T02:31:58.934Z,99.4
2018-07-09T02:32:59.908Z,99.5
2018-07-09T02:34:00.631Z,99.4
2018-07-09T02:35:01.347Z,99.5
2018-07-09T02:36:02.068Z,99.4
2018-07-09T02:37:03.219Z,99.3
2018-07-09T02:38:03.942Z,99.4
2018-07-09T02:39:04.667Z,99.7
2018-07-09T02:40:05.384Z,99.4
2018-07-09T02:41:06.117Z,99.5
2018-07-09T02:42:06.856Z,100.0
2018-07-09T02:43:07.932Z,99.8
2018-07-09T02:44:08.650Z,99.7
2018-07-09T02:45:09.379Z,100.0
2018-07-09T02:46:10.097Z,100.0
2018-07-09T02:47:10.833Z,100.0
2018-07-09T02:48:11.807Z,100.0
2018-07-09T02:49:12.530Z,100.0
2018-07-09T02:50:13.230Z,100.0
2018-07-09T02:51:13.954Z,100.0
2018-07-09T02:52:14.925Z,100.0
2018-07-09T02:53:15.698Z,100.0
2018-07-09T02:54:16.421Z,100.0
2018-07-09T02:55:17.143Z,100.0
2018-07-09T02:56:17.852Z,100.0
2018-07-09T02:57:18.579Z,100.0
2018-07-09T02:58:19.300Z,100.0
2018-07-09T02:59:20.025Z,100.0
2018-07-09T03:00:20.745Z,100.0
2018-07-09T03:01:21.466Z,100.0
2018-07-09T03:02:22.181Z,100.0
2018-07-09T03:03:22.902Z,100.0
2018-07-09T03:04:23.635Z,100.0
2018-07-09T03:05:24.507Z,100.0
2018-07-09T03:06:25.234Z,100.0
2018-07-09T03:07:25.955Z,100.0
2018-07-09T03:08:26.674Z,100.0
2018-07-09T03:09:27.392Z,100.0
2018-07-09T03:10:28.179Z,100.0
2018-07-09T03:11:28.908Z,100.0
2018-07-09T03:12:29.647Z,100.0
2018-07-09T03:13:30.364Z,100.0
2018-07-09T03:14:31.094Z,100.0
2018-07-09T03:15:32.072Z,100.0
2018-07-09T03:16:32.783Z,100.0
2018-07-09T03:17:33.507Z,100.0
2018-07-09T03:18:34.227Z,100.0
2018-07-09T03:19:34.951Z,100.0
2018-07-09T03:20:35.727Z,100.0
2018-07-09T03:21:36.455Z,100.0
2018-07-09T03:22:37.181Z,100.0
2018-07-09T03:23:37.904Z,100.0
2018-07-09T03:24:38.641Z,100.0
2018-07-09T03:25:39.417Z,100.0
2018-07-09T03:26:40.154Z,100.0
2018-07-09T03:27:40.891Z,100.0
2018-07-09T03:28:41.618Z,100.0
2018-07-09T03:29:42.426Z,100.0
2018-07-09T03:30:43.114Z,100.0
2018-07-09T03:31:43.843Z,100.0
2018-07-09T03:32:44.590Z,100.0
2018-07-09T03:33:45.333Z,100.0
2018-07-09T03:34:46.062Z,100.0
2018-07-09T03:35:46.796Z,100.0
2018-07-09T03:36:47.523Z,100.0
2018-07-09T03:37:48.246Z,100.0
2018-07-09T03:38:48.972Z,100.0
2018-07-09T03:39:49.696Z,100.0
2018-07-09T03:40:50.418Z,100.0
2018-07-09T03:41:51.160Z,100.0
2018-07-09T03:42:51.884Z,100.0
2018-07-09T03:43:52.624Z,100.0
2018-07-09T03:44:53.367Z,100.0
2018-07-09T03:45:54.101Z,100.0
2018-07-09T03:46:54.834Z,100.0
2018-07-09T03:47:55.563Z,99.9
2018-07-09T03:48:56.313Z,100.0
2018-07-09T03:49:57.038Z,100.0
2018-07-09T03:50:57.756Z,100.0
2018-07-09T03:51:58.476Z,99.9
2018-07-09T03:52:59.192Z,99.4
2018-07-09T03:53:59.917Z,99.7
2018-07-09T03:55:00.881Z,99.4
2018-07-09T03:56:01.620Z,99.8
2018-07-09T03:57:02.339Z,99.5
2018-07-09T03:58:03.066Z,99.2
2018-07-09T03:59:03.793Z,99.2
2018-07-09T04:00:04.536Z,99.2
2018-07-09T04:01:05.262Z,99.4
2018-07-09T04:02:05.985Z,98.4
2018-07-09T04:03:06.731Z,98.6
2018-07-09T04:04:07.451Z,98.7
2018-07-09T04:05:08.190Z,99.1
2018-07-09T04:06:08.913Z,99.0
2018-07-09T04:07:09.647Z,99.2
2018-07-09T04:08:10.374Z,98.9
2018-07-09T04:09:11.104Z,99.1
2018-07-09T04:10:12.226Z,98.7
2018-07-09T04:11:12.973Z,98.9
2018-07-09T04:12:13.707Z,98.9
2018-07-09T04:13:14.420Z,98.8
2018-07-09T04:14:15.169Z,98.7
2018-07-09T04:15:15.895Z,98.9
2018-07-09T04:16:16.632Z,98.3
2018-07-09T04:17:17.352Z,98.6
2018-07-09T04:18:18.081Z,98.5
2018-07-09T04:19:18.815Z,98.8
2018-07-09T04:20:19.553Z,99.3
2018-07-09T04:21:20.283Z,99.0
2018-07-09T04:22:21.070Z,99.1
2018-07-09T04:23:21.785Z,99.1
2018-07-09T04:24:22.525Z,99.4
2018-07-09T04:25:23.253Z,99.5
2018-07-09T04:26:23.974Z,99.5
2018-07-09T04:27:25.048Z,99.5
2018-07-09T04:28:26.021Z,99.8
2018-07-09T04:29:26.993Z,99.6
2018-07-09T04:30:27.715Z,99.4
2018-07-09T04:31:28.689Z,99.4
2018-07-09T04:32:29.763Z,99.4
2018-07-09T04:33:30.486Z,99.3
2018-07-09T04:34:31.213Z,99.4
2018-07-09T04:35:31.950Z,99.4
2018-07-09T04:36:32.675Z,99.6
2018-07-09T04:37:33.398Z,100.0
2018-07-09T04:38:34.129Z,100.0
2018-07-09T04:39:34.850Z,100.0
2018-07-09T04:40:35.589Z,100.0
2018-07-09T04:41:36.304Z,99.9
2018-07-09T04:42:37.037Z,99.9
2018-07-09T04:43:37.763Z,100.0
2018-07-09T04:44:38.481Z,99.8
2018-07-09T04:45:39.208Z,100.0
2018-07-09T04:46:39.939Z,99.9
2018-07-09T04:47:40.669Z,100.0
2018-07-09T04:48:41.388Z,100.0
2018-07-09T04:49:42.139Z,100.0
2018-07-09T04:50:42.868Z,99.9
2018-07-09T04:51:43.712Z,100.0
2018-07-09T04:52:44.450Z,100.0
2018-07-09T04:53:45.175Z,100.0
2018-07-09T04:54:45.906Z,100.0
2018-07-09T04:55:46.628Z,100.0
2018-07-09T04:56:47.453Z,100.0
2018-07-09T04:57:48.177Z,100.0
2018-07-09T04:58:48.913Z,100.0
2018-07-09T04:59:49.646Z,100.0
2018-07-09T05:00:50.386Z,99.4
2018-07-09T05:01:51.255Z,99.6
2018-07-09T05:02:51.986Z,99.5
2018-07-09T05:03:52.709Z,99.4
2018-07-09T05:04:53.452Z,99.5
2018-07-09T05:05:54.179Z,99.7
2018-07-09T05:06:54.946Z,99.8
2018-07-09T05:07:55.676Z,99.4
2018-07-09T05:08:56.396Z,99.2
2018-07-09T05:09:57.120Z,98.9
2018-07-09T05:10:57.847Z,99.2
2018-07-09T05:11:58.636Z,99.2
2018-07-09T05:12:59.416Z,99.0
2018-07-09T05:14:00.097Z,99.2
2018-07-09T05:15:00.831Z,99.2
2018-07-09T05:16:01.561Z,98.7
2018-07-09T05:17:02.294Z,98.9
2018-07-09T05:18:03.271Z,99.0
2018-07-09T05:19:04.250Z,98.6
2018-07-09T05:20:04.964Z,98.8
2018-07-09T05:21:05.677Z,98.5
2018-07-09T05:22:06.967Z,98.7
2018-07-09T05:23:07.772Z,98.5
2018-07-09T05:24:08.749Z,98.2
2018-07-09T05:25:09.474Z,98.5
2018-07-09T05:26:10.215Z,97.9
2018-07-09T05:27:10.932Z,97.9
2018-07-09T05:28:11.908Z,98.2
2018-07-09T05:29:12.698Z,98.1
2018-07-09T05:30:13.505Z,97.8
2018-07-09T05:31:14.659Z,98.4
2018-07-09T05:32:15.888Z,98.0
2018-07-09T05:33:16.735Z,97.4
2018-07-09T05:34:17.439Z,96.9
2018-07-09T05:35:18.695Z,96.5
2018-07-09T05:36:19.552Z,96.0
2018-07-09T05:37:20.758Z,95.3
2018-07-09T05:38:21.506Z,95.3
2018-07-09T05:39:22.219Z,94.8
2018-07-09T05:40:23.039Z,94.6
2018-07-09T05:41:23.859Z,93.2
2018-07-09T05:42:24.606Z,93.5
2018-07-09T05:43:25.383Z,92.6
2018-07-09T05:44:26.108Z,92.8
2018-07-09T05:45:26.850Z,92.8
2018-07-09T05:46:27.563Z,92.4
2018-07-09T05:47:28.313Z,92.4
2018-07-09T05:48:29.019Z,91.6
2018-07-09T05:49:29.763Z,91.4
2018-07-09T05:50:30.495Z,91.1
2018-07-09T05:51:31.235Z,90.7
2018-07-09T05:52:31.961Z,90.8
2018-07-09T05:53:32.692Z,90.5
2018-07-09T05:54:33.416Z,90.4
2018-07-09T05:55:34.414Z,89.7
2018-07-09T05:56:35.145Z,89.9
2018-07-09T05:57:35.879Z,89.4
2018-07-09T05:58:36.611Z,89.1
2018-07-09T05:59:37.337Z,89.1
2018-07-09T06:00:38.322Z,88.3
2018-07-09T06:01:39.293Z,88.9
2018-07-09T06:02:40.040Z,88.1
2018-07-09T06:03:40.771Z,89.0
2018-07-09T06:04:41.510Z,89.2
2018-07-09T06:05:42.241Z,89.2
2018-07-09T06:06:42.973Z,88.7
2018-07-09T06:07:43.708Z,88.6
2018-07-09T06:08:44.793Z,88.0
2018-07-09T06:09:45.517Z,88.2
2018-07-09T06:10:46.235Z,88.1
2018-07-09T06:11:46.964Z,88.6
2018-07-09T06:12:47.688Z,88.5
2018-07-09T06:13:48.419Z,88.5
2018-07-09T06:14:49.162Z,88.5
2018-07-09T06:15:49.901Z,88.5
2018-07-09T06:16:50.615Z,89.0
2018-07-09T06:17:51.348Z,89.0
2018-07-09T06:18:52.072Z,89.0
2018-07-09T06:19:52.804Z,89.1
2018-07-09T06:20:53.833Z,89.1
2018-07-09T06:21:54.566Z,89.5
2018-07-09T06:22:55.279Z,89.4
2018-07-09T06:23:56.034Z,89.5
2018-07-09T06:24:56.759Z,89.9
2018-07-09T06:25:57.598Z,89.6
2018-07-09T06:26:58.333Z,89.5
2018-07-09T06:27:59.061Z,89.3
2018-07-09T06:28:59.786Z,88.9
2018-07-09T06:30:00.528Z,89.0
2018-07-09T06:31:01.305Z,88.9
2018-07-09T06:32:02.040Z,89.9
2018-07-09T06:33:02.782Z,89.9
2018-07-09T06:34:03.513Z,89.6
2018-07-09T06:35:04.249Z,89.8
2018-07-09T06:36:04.986Z,89.9
2018-07-09T06:37:06.111Z,89.6
2018-07-09T06:38:06.841Z,89.6
2018-07-09T06:39:07.573Z,89.9
2018-07-09T06:40:08.309Z,89.9
2018-07-09T06:41:09.044Z,89.5
2018-07-09T06:42:10.123Z,89.7
2018-07-09T06:43:10.864Z,89.8
2018-07-09T06:44:11.591Z,89.6
2018-07-09T06:45:12.317Z,89.0
2018-07-09T06:46:13.049Z,89.0
2018-07-09T06:47:13.832Z,89.1
2018-07-09T06:48:14.587Z,88.5
2018-07-09T06:49:15.291Z,88.3
2018-07-09T06:50:16.024Z,88.6
2018-07-09T06:51:16.761Z,88.6
2018-07-09T06:52:17.499Z,88.6
2018-07-09T06:53:18.224Z,89.0
2018-07-09T06:54:18.957Z,88.2
2018-07-09T06:55:19.686Z,88.3
2018-07-09T06:56:20.665Z,88.3
2018-07-09T06:57:21.396Z,88.4
2018-07-09T06:58:22.132Z,87.6
2018-07-09T06:59:22.856Z,88.0
2018-07-09T07:00:23.587Z,87.9
2018-07-09T07:01:24.471Z,87.5
2018-07-09T07:02:25.538Z,87.6
2018-07-09T07:03:26.181Z,87.6
2018-07-09T07:04:26.905Z,87.5
2018-07-09T07:05:27.642Z,87.4
2018-07-09T07:06:28.764Z,88.0
2018-07-09T07:07:29.499Z,87.8
2018-07-09T07:08:30.485Z,87.9
2018-07-09T07:09:31.232Z,87.9
2018-07-09T07:10:31.960Z,87.9
2018-07-09T07:11:33.048Z,87.7
2018-07-09T07:12:33.792Z,87.3
2018-07-09T07:13:34.770Z,87.4
2018-07-09T07:14:35.507Z,86.6
2018-07-09T07:15:36.227Z,85.4
2018-07-09T07:16:36.959Z,84.3
2018-07-09T07:17:37.679Z,84.1
2018-07-09T07:18:38.414Z,84.4
2018-07-09T07:19:39.166Z,84.2
2018-07-09T07:20:39.896Z,83.4
2018-07-09T07:21:40.641Z,83.1
2018-07-09T07:22:41.364Z,82.3
2018-07-09T07:23:42.256Z,81.2
2018-07-09T07:24:42.985Z,80.0
2018-07-09T07:25:43.711Z,78.8
2018-07-09T07:26:44.442Z,78.3
2018-07-09T07:27:45.188Z,77.9
2018-07-09T07:28:46.014Z,77.5
2018-07-09T07:29:46.996Z,77.3
2018-07-09T07:30:47.719Z,77.2
2018-07-09T07:31:48.699Z,76.5
2018-07-09T07:32:49.446Z,76.1
2018-07-09T07:33:50.158Z,76.0
2018-07-09T07:34:50.905Z,75.6
2018-07-09T07:35:51.893Z,75.6
2018-07-09T07:36:52.638Z,75.2
2018-07-09T07:37:53.372Z,73.8
2018-07-09T07:38:54.105Z,69.7
2018-07-09T07:39:54.833Z,69.7
2018-07-09T07:40:55.566Z,70.2
2018-07-09T07:41:56.293Z,69.3
2018-07-09T07:42:57.032Z,69.3
2018-07-09T07:43:57.763Z,68.4
2018-07-09T07:44:58.507Z,65.6
2018-07-09T07:45:59.223Z,65.3
2018-07-09T07:46:59.946Z,65.1
2018-07-09T07:48:00.679Z,65.2
2018-07-09T07:49:01.507Z,66.1
2018-07-09T07:50:02.237Z,66.0
2018-07-09T07:51:02.964Z,65.4
2018-07-09T07:52:03.695Z,67.4
2018-07-09T07:53:04.422Z,69.7
2018-07-09T07:54:05.225Z,70.4
2018-07-09T07:55:05.955Z,71.3
2018-07-09T07:56:06.685Z,72.3
2018-07-09T07:57:07.428Z,72.7
2018-07-09T07:58:08.157Z,73.0
2018-07-09T07:59:08.885Z,71.8
2018-07-09T08:00:09.861Z,70.1
2018-07-09T08:01:10.622Z,69.6
2018-07-09T08:02:11.349Z,70.6
2018-07-09T08:03:12.070Z,71.3
2018-07-09T08:04:12.796Z,70.1
2018-07-09T08:05:13.531Z,70.5
2018-07-09T08:06:14.263Z,70.4
2018-07-09T08:07:14.986Z,68.3
2018-07-09T08:08:15.715Z,66.7
2018-07-09T08:09:16.483Z,65.2
2018-07-09T08:10:17.182Z,63.1
2018-07-09T08:11:17.921Z,63.3
2018-07-09T08:13:29.007Z,65.5
2018-07-09T08:14:22.010Z,65.1
2018-07-09T08:15:22.738Z,63.7
2018-07-09T08:16:23.472Z,62.6
2018-07-09T08:17:24.204Z,62.2
2018-07-09T08:18:24.930Z,60.9
2018-07-09T08:19:25.670Z,58.7
2018-07-09T08:20:26.395Z,56.9
2018-07-09T08:21:27.135Z,54.9
2018-07-09T08:22:27.871Z,55.3
2018-07-09T08:23:28.619Z,53.9
2018-07-09T08:24:29.598Z,55.0
2018-07-09T08:25:30.579Z,56.6
2018-07-09T08:26:31.074Z,58.0
2018-07-09T08:27:31.805Z,58.0
2018-07-09T08:28:32.558Z,59.4
2018-07-09T08:29:33.285Z,60.8
2018-07-09T08:30:34.008Z,62.3
2018-07-09T08:31:34.748Z,64.5
2018-07-09T08:32:35.472Z,64.9
2018-07-09T08:33:36.212Z,65.7
2018-07-09T08:34:37.085Z,67.8
2018-07-09T08:35:37.814Z,66.3
2018-07-09T08:36:38.555Z,66.6
2018-07-09T08:37:39.290Z,66.6
2018-07-09T08:38:40.025Z,66.7
2018-07-09T08:39:40.852Z,66.4
2018-07-09T08:40:41.600Z,66.0
2018-07-09T08:41:42.333Z,64.8
2018-07-09T08:42:43.073Z,65.9
2018-07-09T08:43:43.822Z,66.9
2018-07-09T08:44:44.815Z,67.5
2018-07-09T08:45:45.562Z,65.8
2018-07-09T08:46:46.534Z,65.3
2018-07-09T08:47:47.264Z,65.6
2018-07-09T08:48:48.000Z,66.2
2018-07-09T08:49:48.729Z,66.4
2018-07-09T08:50:49.522Z,66.7
2018-07-09T08:51:50.252Z,66.5
2018-07-09T08:52:51.237Z,67.5
2018-07-09T08:53:51.973Z,65.3
2018-07-09T08:54:52.709Z,64.7
2018-07-09T08:55:53.435Z,64.5
2018-07-09T08:56:54.180Z,63.0
2018-07-09T08:57:55.316Z,63.1
2018-07-09T08:58:56.046Z,64.0
2018-07-09T08:59:56.784Z,63.4
2018-07-09T09:00:57.517Z,61.9
2018-07-09T09:01:58.252Z,61.4
2018-07-09T09:02:59.401Z,61.3
2018-07-09T09:04:00.135Z,61.5
2018-07-09T09:05:00.883Z,62.3
2018-07-09T09:06:01.630Z,62.2
2018-07-09T09:07:02.363Z,61.3
2018-07-09T09:08:03.267Z,61.4
2018-07-09T09:09:04.000Z,62.0
2018-07-09T09:10:04.777Z,63.2
2018-07-09T09:11:05.471Z,63.8
2018-07-09T09:12:06.210Z,64.7
2018-07-09T09:13:07.042Z,65.0
2018-07-09T09:14:07.785Z,65.7
2018-07-09T09:15:08.511Z,66.5
2018-07-09T09:16:09.240Z,68.0
2018-07-09T09:17:09.994Z,69.0
2018-07-09T09:18:10.821Z,70.8
2018-07-09T09:19:11.795Z,70.9
2018-07-09T09:20:12.533Z,70.8
2018-07-09T09:21:13.267Z,70.8
2018-07-09T09:22:14.005Z,70.4
2018-07-09T09:23:14.737Z,71.3
2018-07-09T09:24:15.473Z,71.6
2018-07-09T09:25:16.207Z,72.2
2018-07-09T09:26:16.938Z,73.6
2018-07-09T09:27:17.916Z,75.0
2018-07-09T09:28:18.896Z,75.6
2018-07-09T09:29:19.653Z,76.2
2018-07-09T09:30:20.408Z,77.5
2018-07-09T09:31:21.246Z,78.2
2018-07-09T09:32:21.871Z,78.3
2018-07-09T09:33:22.858Z,78.1
2018-07-09T09:34:23.608Z,79.2
2018-07-09T09:35:24.353Z,79.0
2018-07-09T09:36:25.099Z,78.8
2018-07-09T09:37:25.868Z,77.8
2018-07-09T09:38:26.570Z,77.9
2018-07-09T09:39:27.304Z,77.5
2018-07-09T09:40:28.042Z,77.2
2018-07-09T09:41:28.767Z,77.2
2018-07-09T09:42:29.506Z,76.6
2018-07-09T09:43:30.232Z,76.8
2018-07-09T09:44:31.061Z,75.8
2018-07-09T09:45:31.796Z,76.5
2018-07-09T09:46:32.526Z,77.2
2018-07-09T09:47:33.256Z,76.9
2018-07-09T09:48:33.989Z,76.0
2018-07-09T09:49:34.819Z,75.9
2018-07-09T09:50:35.548Z,76.7
2018-07-09T09:51:36.280Z,77.1
2018-07-09T09:52:37.010Z,75.7
2018-07-09T09:53:37.742Z,76.6
2018-07-09T09:54:38.470Z,77.1
2018-07-09T09:55:39.445Z,77.8
2018-07-09T09:56:40.177Z,77.6
2018-07-09T09:57:40.909Z,78.1
2018-07-09T09:58:41.644Z,77.8
2018-07-09T09:59:42.378Z,77.8
2018-07-09T10:00:43.160Z,78.6
2018-07-09T10:01:43.845Z,79.4
2018-07-09T10:02:44.584Z,79.2
2018-07-09T10:03:45.316Z,79.4
2018-07-09T10:04:46.061Z,80.2
2018-07-09T10:05:46.785Z,80.5
2018-07-09T10:06:47.513Z,80.3
2018-07-09T10:07:48.502Z,79.7
2018-07-09T10:08:49.232Z,79.8
2018-07-09T10:09:49.956Z,79.9
2018-07-09T10:10:50.679Z,79.8
2018-07-09T10:11:51.473Z,80.0
2018-07-09T10:12:52.208Z,79.6
2018-07-09T10:13:52.944Z,80.1
2018-07-09T10:14:53.672Z,79.9
2018-07-09T10:15:54.417Z,80.5
2018-07-09T10:16:55.193Z,80.4
2018-07-09T10:17:55.894Z,79.5
2018-07-09T10:18:56.627Z,79.8
2018-07-09T10:19:57.365Z,80.0
2018-07-09T10:20:58.114Z,80.1
2018-07-09T10:21:58.839Z,80.7
2018-07-09T10:22:59.652Z,80.5
2018-07-09T10:24:00.325Z,80.3
2018-07-09T10:25:01.166Z,80.7
2018-07-09T10:26:01.893Z,80.9
2018-07-09T10:27:02.629Z,81.8
2018-07-09T10:28:03.360Z,81.8
2018-07-09T10:29:04.099Z,82.8
2018-07-09T10:30:04.875Z,83.1
2018-07-09T10:31:05.603Z,83.2
2018-07-09T10:32:06.329Z,83.3
2018-07-09T10:33:07.054Z,82.7
2018-07-09T10:34:07.786Z,83.0
2018-07-09T10:35:08.606Z,83.2
2018-07-09T10:36:09.343Z,83.0
2018-07-09T10:37:10.086Z,82.6
2018-07-09T10:38:10.817Z,83.1
2018-07-09T10:39:11.551Z,82.6
2018-07-09T10:40:12.520Z,82.9
2018-07-09T10:41:13.256Z,83.3
2018-07-09T10:42:13.983Z,82.8
2018-07-09T10:43:14.725Z,83.1
2018-07-09T10:44:15.462Z,83.0
2018-07-09T10:45:16.193Z,83.1
2018-07-09T10:46:16.917Z,82.8
2018-07-09T10:47:17.661Z,83.1
2018-07-09T10:48:18.687Z,83.0
2018-07-09T10:49:19.430Z,82.8
2018-07-09T10:50:20.156Z,82.8
2018-07-09T10:51:20.900Z,82.8
2018-07-09T10:52:21.645Z,83.2
2018-07-09T10:53:22.478Z,83.4
2018-07-09T10:54:23.462Z,83.9
2018-07-09T10:55:24.192Z,83.4
2018-07-09T10:56:24.935Z,83.4
2018-07-09T10:57:25.671Z,83.1
2018-07-09T10:58:26.550Z,82.5
2018-07-09T10:59:27.295Z,81.6
2018-07-09T11:00:28.021Z,81.2
2018-07-09T11:01:28.753Z,81.2
2018-07-09T11:02:29.476Z,80.6
2018-07-09T11:03:30.210Z,80.7
2018-07-09T11:04:31.003Z,80.0
2018-07-09T11:05:31.727Z,80.0
2018-07-09T11:06:32.468Z,80.5
2018-07-09T11:07:33.187Z,80.3
2018-07-09T11:08:33.919Z,79.9
2018-07-09T11:09:34.790Z,79.8
2018-07-09T11:10:35.500Z,79.6
2018-07-09T11:11:36.232Z,79.9
2018-07-09T11:12:36.970Z,79.9
2018-07-09T11:13:37.718Z,78.9
2018-07-09T11:14:38.446Z,79.7
2018-07-09T11:15:39.233Z,79.4
2018-07-09T11:16:39.969Z,79.9
2018-07-09T11:17:40.709Z,79.0
2018-07-09T11:18:41.438Z,79.2
2018-07-09T11:19:42.176Z,79.3
2018-07-09T11:20:42.919Z,79.0
2018-07-09T11:21:43.680Z,78.4
2018-07-09T11:22:44.386Z,79.0
2018-07-09T11:23:45.364Z,79.9
2018-07-09T11:24:46.112Z,78.9
2018-07-09T11:25:46.833Z,78.1
2018-07-09T11:26:47.568Z,78.1
2018-07-09T11:27:48.301Z,78.1
2018-07-09T11:28:49.276Z,77.9
2018-07-09T11:29:50.022Z,77.9
2018-07-09T11:30:50.759Z,78.2
2018-07-09T11:31:52.133Z,77.1
2018-07-09T11:32:52.867Z,76.7
2018-07-09T11:33:53.609Z,76.4
2018-07-09T11:34:54.337Z,76.8
2018-07-09T11:35:55.111Z,77.1
2018-07-09T11:36:55.809Z,75.9
2018-07-09T11:37:56.544Z,74.1
2018-07-09T11:38:57.273Z,73.5
2018-07-09T11:39:58.009Z,73.5
2018-07-09T11:40:58.742Z,72.1
2018-07-09T11:41:59.487Z,70.7
2018-07-09T11:43:00.569Z,70.1
2018-07-09T11:44:01.307Z,69.6
2018-07-09T11:45:02.300Z,69.9
2018-07-09T11:46:03.030Z,68.6
2018-07-09T11:47:03.758Z,68.9
2018-07-09T11:48:04.495Z,69.5
2018-07-09T11:49:05.219Z,70.6
2018-07-09T11:50:05.946Z,70.6
2018-07-09T11:51:06.692Z,71.0
2018-07-09T11:52:07.480Z,71.0
2018-07-09T11:53:08.170Z,70.9
2018-07-09T11:54:08.909Z,70.9
2018-07-09T11:55:09.651Z,70.4
2018-07-09T11:56:10.384Z,71.4
2018-07-09T11:57:11.123Z,71.1
2018-07-09T11:58:11.847Z,70.6
2018-07-09T11:59:12.588Z,71.6
2018-07-09T12:00:13.313Z,72.9
2018-07-09T12:01:14.292Z,72.8
2018-07-09T12:02:15.126Z,70.7
2018-07-09T12:03:15.858Z,68.7
2018-07-09T12:04:16.839Z,67.8
2018-07-09T12:05:17.578Z,67.1
2018-07-09T12:06:18.300Z,67.2
2018-07-09T12:07:19.045Z,66.7
2018-07-09T12:08:19.788Z,66.1
2018-07-09T12:09:20.528Z,65.8
2018-07-09T12:10:21.258Z,65.9
2018-07-09T12:11:22.004Z,65.2
2018-07-09T12:12:23.107Z,66.7
2018-07-09T12:13:23.841Z,65.8
2018-07-09T12:14:24.575Z,66.0
2018-07-09T12:15:25.305Z,64.9
2018-07-09T12:16:26.048Z,63.7
2018-07-09T12:17:27.125Z,63.4
2018-07-09T12:18:27.852Z,62.3
2018-07-09T12:19:28.595Z,63.0
2018-07-09T12:20:29.327Z,61.4
2018-07-09T12:21:30.073Z,61.9
2018-07-09T12:22:31.145Z,62.0
2018-07-09T12:23:31.874Z,61.2
2018-07-09T12:24:32.606Z,61.3
2018-07-09T12:25:33.609Z,61.5
2018-07-09T12:26:34.335Z,62.2
2018-07-09T12:27:35.290Z,63.5
2018-07-09T12:28:36.042Z,65.3
2018-07-09T12:29:36.771Z,65.9
2018-07-09T12:30:37.499Z,65.4
2018-07-09T12:31:38.228Z,65.7
2018-07-09T12:32:38.971Z,63.4
2018-07-09T12:33:39.759Z,62.5
2018-07-09T12:34:40.488Z,62.2
2018-07-09T12:35:41.231Z,61.6
2018-07-09T12:36:41.961Z,60.7
2018-07-09T12:37:42.692Z,60.1
2018-07-09T12:38:43.476Z,60.5
2018-07-09T12:39:44.207Z,60.9
2018-07-09T12:40:44.942Z,62.3
2018-07-09T12:41:45.705Z,62.6
2018-07-09T12:42:46.434Z,63.8
2018-07-09T12:43:47.488Z,64.6
2018-07-09T12:44:48.202Z,64.9
2018-07-09T12:45:48.938Z,65.9
2018-07-09T12:46:49.676Z,66.7
2018-07-09T12:47:50.415Z,68.2
2018-07-09T12:48:51.144Z,67.4
2018-07-09T12:49:51.875Z,69.1
2018-07-09T12:50:52.608Z,70.7
2018-07-09T12:51:53.386Z,71.5
2018-07-09T12:52:54.117Z,72.6
2018-07-09T12:53:54.850Z,73.5
2018-07-09T12:54:55.598Z,73.8
2018-07-09T12:55:56.344Z,74.0
2018-07-09T12:56:57.136Z,73.1
2018-07-09T12:57:57.864Z,72.5
2018-07-09T12:58:58.599Z,71.7
2018-07-09T12:59:59.345Z,71.0
2018-07-09T13:01:00.337Z,70.5
2018-07-09T13:02:01.061Z,69.6
2018-07-09T13:03:01.798Z,69.1
2018-07-09T13:04:02.531Z,68.8
2018-07-09T13:05:03.535Z,69.2
2018-07-09T13:06:04.254Z,68.6
2018-07-09T13:07:05.101Z,69.1
2018-07-09T13:08:05.782Z,68.7
2018-07-09T13:09:06.518Z,70.6
2018-07-09T13:10:07.252Z,71.8
2018-07-09T13:11:07.982Z,71.8
2018-07-09T13:12:08.715Z,73.0
2018-07-09T13:13:09.457Z,73.9
2018-07-09T13:14:10.188Z,74.4
2018-07-09T13:15:10.922Z,73.9
2018-07-09T13:16:11.653Z,74.6
2018-07-09T13:17:12.391Z,72.7
2018-07-09T13:18:13.136Z,73.2
2018-07-09T13:19:13.868Z,71.7
2018-07-09T13:20:14.612Z,71.7
2018-07-09T13:21:15.344Z,71.0
2018-07-09T13:22:16.082Z,70.8
2018-07-09T13:23:16.815Z,71.1
2018-07-09T13:24:17.906Z,70.9
2018-07-09T13:25:18.645Z,72.1
2018-07-09T13:26:19.375Z,70.9